Terminal Aerodrome Forecast
Issued by NWS

Home | Current Version | Previous Version | Graphics & Text | Print | Product List | Glossary On
Versions: 1 2 3 4 5 6 7 8 9 10 11 12 13 14 15 16 17 18 19 20 21
000
FTUS43 KOAX 181739
TAFCDR
TAF
KCDR 181739Z 1818/1918 35008KT P6SM BKN050 OVC100
     FM182000 04016G23KT P6SM BKN015
     FM190300 03018G28KT 1SM -SN OVC015=

USA.gov is the U.S. government's official web portal to all federal, state and local government web resources and services.